FSIA Airport Information

Runway Information
Runway 13 Length 9800 ft width 151 ft
Elevation 10 ft Threshold 1000 ft Heading 125
Runway 31 Length 9800 ft Width 151 ft
Elevation 10 ft Threshold 1000 ft Heading 305
Airport Frequencies
Type APP Name APP Frequency 119.7 MHZ
Type TWR Name TWR Frequency 118.3 MHZ
Airport Navaids
Type VOR-DME Name Seychelles Frequency 113100 KHZ
Type NDB Name Seychelles Frequency 373 KHZ
Airport Weather Information & NOTAM
ADDS - METARS form results

(1103 UTC 22 October 2019)
Data provider http://aviationweather.gov/metar/data/
 
Forecast for: FSIA (SEYCHELLES INTL , SC)
Text: TAF FSIA 220507Z 2206/2306 10010KT 9999 SCT022
Forecast period: 0600 UTC 22 October 2019 to 0600 UTC 23 October 2019
Forecast type: FROM: standard forecast or significant change
Winds: from the E (100 degrees) at 12 MPH (10 knots; 5.1 m/s)
Visibility: 6 or more miles 10+ km)
Ceiling: at least 12,000 feet AGL
Clouds: scattered clouds at 2200 feet AGL
Weather: no significant weather forecast for this period
Text: TEMPO 2214/2220 8000 SHRA FEW012 FEW016CB BKN018
Forecast period: 1400 to 2000 UTC 22 October 2019
Forecast type: TEMPORARY: The following changes expected for less than half the time period
Visibility: 5 miles (8 km)
Ceiling: 1800 feet AGL
Clouds: few clouds at 1200 feet AGL
few clouds at 1600 feet AGL
broken clouds at 1800 feet AGL
Weather: SHRA  (rain showers)